sensor_id;sensor_type;location;lat;lon;timestamp;P1;durP1;ratioP1;P2;durP2;ratioP2
21458;SDS011;10891;49.350;19.386;2023-09-07T00:01:58;8.88;;;6.47;;
21458;SDS011;10891;49.350;19.386;2023-09-07T00:04:25;10.15;;;6.72;;
21458;SDS011;10891;49.350;19.386;2023-09-07T00:06:52;8.70;;;6.68;;
21458;SDS011;10891;49.350;19.386;2023-09-07T00:09:19;9.02;;;6.72;;
21458;SDS011;10891;49.350;19.386;2023-09-07T00:11:48;10.10;;;6.85;;
21458;SDS011;10891;49.350;19.386;2023-09-07T00:14:15;10.93;;;6.90;;
21458;SDS011;10891;49.350;19.386;2023-09-07T00:16:42;10.73;;;6.57;;
21458;SDS011;10891;49.350;19.386;2023-09-07T00:19:11;10.10;;;6.68;;
21458;SDS011;10891;49.350;19.386;2023-09-07T00:21:38;10.35;;;6.45;;
21458;SDS011;10891;49.350;19.386;2023-09-07T00:24:06;9.40;;;6.72;;
21458;SDS011;10891;49.350;19.386;2023-09-07T00:26:33;11.13;;;6.50;;
21458;SDS011;10891;49.350;19.386;2023-09-07T00:29:00;12.57;;;6.90;;
21458;SDS011;10891;49.350;19.386;2023-09-07T00:31:27;10.55;;;7.10;;
21458;SDS011;10891;49.350;19.386;2023-09-07T00:33:54;12.60;;;6.45;;
21458;SDS011;10891;49.350;19.386;2023-09-07T00:36:23;12.18;;;7.05;;
21458;SDS011;10891;49.350;19.386;2023-09-07T00:38:50;11.05;;;7.38;;
21458;SDS011;10891;49.350;19.386;2023-09-07T00:41:17;12.10;;;7.10;;
21458;SDS011;10891;49.350;19.386;2023-09-07T00:43:44;12.85;;;6.75;;
21458;SDS011;10891;49.350;19.386;2023-09-07T00:46:11;9.98;;;6.72;;
21458;SDS011;10891;49.350;19.386;2023-09-07T00:48:39;14.48;;;8.13;;
21458;SDS011;10891;49.350;19.386;2023-09-07T00:51:06;11.98;;;7.15;;
21458;SDS011;10891;49.350;19.386;2023-09-07T00:53:35;10.27;;;7.07;;
21458;SDS011;10891;49.350;19.386;2023-09-07T00:56:02;9.85;;;6.68;;
21458;SDS011;10891;49.350;19.386;2023-09-07T00:58:31;11.13;;;7.53;;
21458;SDS011;10891;49.350;19.386;2023-09-07T01:00:58;11.82;;;7.90;;
21458;SDS011;10891;49.350;19.386;2023-09-07T01:03:26;17.27;;;8.23;;
21458;SDS011;10891;49.350;19.386;2023-09-07T01:05:55;11.02;;;7.90;;
21458;SDS011;10891;49.350;19.386;2023-09-07T01:08:24;18.05;;;8.73;;
21458;SDS011;10891;49.350;19.386;2023-09-07T01:10:54;19.73;;;10.20;;
21458;SDS011;10891;49.350;19.386;2023-09-07T01:13:21;23.60;;;10.10;;
21458;SDS011;10891;49.350;19.386;2023-09-07T01:15:48;15.18;;;8.70;;
21458;SDS011;10891;49.350;19.386;2023-09-07T01:18:16;16.40;;;8.65;;
21458;SDS011;10891;49.350;19.386;2023-09-07T01:20:43;15.90;;;7.90;;
21458;SDS011;10891;49.350;19.386;2023-09-07T01:23:12;12.13;;;7.38;;
21458;SDS011;10891;49.350;19.386;2023-09-07T01:25:40;13.50;;;7.07;;
21458;SDS011;10891;49.350;19.386;2023-09-07T01:28:07;10.90;;;6.40;;
21458;SDS011;10891;49.350;19.386;2023-09-07T01:30:35;13.52;;;6.28;;
21458;SDS011;10891;49.350;19.386;2023-09-07T01:33:04;11.02;;;6.68;;
21458;SDS011;10891;49.350;19.386;2023-09-07T01:35:31;11.38;;;6.60;;
21458;SDS011;10891;49.350;19.386;2023-09-07T01:37:59;11.75;;;6.53;;
21458;SDS011;10891;49.350;19.386;2023-09-07T01:40:28;13.07;;;7.13;;
21458;SDS011;10891;49.350;19.386;2023-09-07T01:42:55;14.38;;;7.43;;
21458;SDS011;10891;49.350;19.386;2023-09-07T01:45:22;12.88;;;7.05;;
21458;SDS011;10891;49.350;19.386;2023-09-07T01:47:50;17.55;;;7.70;;
21458;SDS011;10891;49.350;19.386;2023-09-07T01:50:17;16.50;;;7.70;;
21458;SDS011;10891;49.350;19.386;2023-09-07T01:52:45;16.75;;;7.70;;
21458;SDS011;10891;49.350;19.386;2023-09-07T01:55:12;12.45;;;7.65;;
21458;SDS011;10891;49.350;19.386;2023-09-07T01:57:41;17.25;;;8.25;;
21458;SDS011;10891;49.350;19.386;2023-09-07T02:00:09;31.88;;;9.13;;
21458;SDS011;10891;49.350;19.386;2023-09-07T02:02:36;25.08;;;8.82;;
21458;SDS011;10891;49.350;19.386;2023-09-07T02:05:03;26.25;;;9.23;;
21458;SDS011;10891;49.350;19.386;2023-09-07T02:07:30;35.70;;;9.68;;
21458;SDS011;10891;49.350;19.386;2023-09-07T02:09:57;36.92;;;9.85;;
21458;SDS011;10891;49.350;19.386;2023-09-07T02:12:24;37.92;;;8.70;;
21458;SDS011;10891;49.350;19.386;2023-09-07T02:14:53;31.65;;;9.18;;
21458;SDS011;10891;49.350;19.386;2023-09-07T02:17:20;31.42;;;9.43;;
21458;SDS011;10891;49.350;19.386;2023-09-07T02:19:47;30.45;;;9.65;;
21458;SDS011;10891;49.350;19.386;2023-09-07T02:22:15;33.63;;;9.57;;
21458;SDS011;10891;49.350;19.386;2023-09-07T02:24:42;31.13;;;9.73;;
21458;SDS011;10891;49.350;19.386;2023-09-07T02:27:09;29.95;;;10.32;;
21458;SDS011;10891;49.350;19.386;2023-09-07T02:29:36;24.52;;;9.25;;
21458;SDS011;10891;49.350;19.386;2023-09-07T02:32:05;15.80;;;8.73;;
21458;SDS011;10891;49.350;19.386;2023-09-07T02:34:34;30.48;;;9.88;;
21458;SDS011;10891;49.350;19.386;2023-09-07T02:37:02;28.02;;;9.02;;
21458;SDS011;10891;49.350;19.386;2023-09-07T02:39:30;28.63;;;8.77;;
21458;SDS011;10891;49.350;19.386;2023-09-07T02:41:57;36.50;;;9.80;;
21458;SDS011;10891;49.350;19.386;2023-09-07T02:44:24;26.13;;;10.30;;
21458;SDS011;10891;49.350;19.386;2023-09-07T02:46:51;33.03;;;9.57;;
21458;SDS011;10891;49.350;19.386;2023-09-07T02:49:20;22.08;;;8.68;;
21458;SDS011;10891;49.350;19.386;2023-09-07T02:51:47;21.05;;;9.18;;
21458;SDS011;10891;49.350;19.386;2023-09-07T02:54:14;26.23;;;9.48;;
21458;SDS011;10891;49.350;19.386;2023-09-07T02:56:41;22.33;;;8.48;;
21458;SDS011;10891;49.350;19.386;2023-09-07T02:59:08;25.88;;;10.77;;
21458;SDS011;10891;49.350;19.386;2023-09-07T03:01:35;31.45;;;10.45;;
21458;SDS011;10891;49.350;19.386;2023-09-07T03:04:05;32.70;;;11.02;;
21458;SDS011;10891;49.350;19.386;2023-09-07T03:06:34;34.58;;;9.77;;
21458;SDS011;10891;49.350;19.386;2023-09-07T03:09:01;38.78;;;11.25;;
21458;SDS011;10891;49.350;19.386;2023-09-07T03:11:31;20.83;;;10.00;;
21458;SDS011;10891;49.350;19.386;2023-09-07T03:14:00;25.55;;;9.45;;
21458;SDS011;10891;49.350;19.386;2023-09-07T03:16:27;21.17;;;9.30;;
21458;SDS011;10891;49.350;19.386;2023-09-07T03:18:55;30.90;;;9.98;;
21458;SDS011;10891;49.350;19.386;2023-09-07T03:21:22;24.77;;;9.48;;
21458;SDS011;10891;49.350;19.386;2023-09-07T03:23:55;20.73;;;9.13;;
21458;SDS011;10891;49.350;19.386;2023-09-07T03:26:22;16.05;;;7.22;;
21458;SDS011;10891;49.350;19.386;2023-09-07T03:28:49;19.15;;;7.25;;
21458;SDS011;10891;49.350;19.386;2023-09-07T03:31:17;21.63;;;8.48;;
21458;SDS011;10891;49.350;19.386;2023-09-07T03:33:44;23.75;;;7.68;;
21458;SDS011;10891;49.350;19.386;2023-09-07T03:36:11;14.73;;;7.70;;
21458;SDS011;10891;49.350;19.386;2023-09-07T03:38:40;19.08;;;8.35;;
21458;SDS011;10891;49.350;19.386;2023-09-07T03:41:08;16.35;;;8.45;;
21458;SDS011;10891;49.350;19.386;2023-09-07T03:43:35;18.23;;;8.07;;
21458;SDS011;10891;49.350;19.386;2023-09-07T03:46:03;26.00;;;8.05;;
21458;SDS011;10891;49.350;19.386;2023-09-07T03:48:30;23.17;;;8.18;;
21458;SDS011;10891;49.350;19.386;2023-09-07T03:50:57;30.35;;;7.32;;
21458;SDS011;10891;49.350;19.386;2023-09-07T03:53:24;23.10;;;9.23;;
21458;SDS011;10891;49.350;19.386;2023-09-07T03:55:51;22.35;;;9.55;;
21458;SDS011;10891;49.350;19.386;2023-09-07T03:58:20;17.63;;;8.90;;
21458;SDS011;10891;49.350;19.386;2023-09-07T04:00:47;20.50;;;9.48;;
21458;SDS011;10891;49.350;19.386;2023-09-07T04:03:14;25.08;;;8.77;;
21458;SDS011;10891;49.350;19.386;2023-09-07T04:05:41;31.35;;;7.75;;
21458;SDS011;10891;49.350;19.386;2023-09-07T04:08:08;18.02;;;7.50;;
21458;SDS011;10891;49.350;19.386;2023-09-07T04:10:36;23.30;;;7.95;;
21458;SDS011;10891;49.350;19.386;2023-09-07T04:13:04;17.77;;;8.00;;
21458;SDS011;10891;49.350;19.386;2023-09-07T04:15:33;19.77;;;7.07;;
21458;SDS011;10891;49.350;19.386;2023-09-07T04:18:01;22.15;;;8.07;;
21458;SDS011;10891;49.350;19.386;2023-09-07T04:20:28;21.70;;;7.38;;
21458;SDS011;10891;49.350;19.386;2023-09-07T04:22:55;16.45;;;7.05;;
21458;SDS011;10891;49.350;19.386;2023-09-07T04:25:22;22.67;;;6.50;;
21458;SDS011;10891;49.350;19.386;2023-09-07T04:27:51;14.98;;;6.72;;
21458;SDS011;10891;49.350;19.386;2023-09-07T04:30:18;17.88;;;6.82;;
21458;SDS011;10891;49.350;19.386;2023-09-07T04:32:46;24.88;;;6.90;;
21458;SDS011;10891;49.350;19.386;2023-09-07T04:35:14;16.85;;;7.07;;
21458;SDS011;10891;49.350;19.386;2023-09-07T04:37:41;19.00;;;7.07;;
21458;SDS011;10891;49.350;19.386;2023-09-07T04:40:09;20.48;;;6.65;;
21458;SDS011;10891;49.350;19.386;2023-09-07T04:42:36;15.30;;;6.43;;
21458;SDS011;10891;49.350;19.386;2023-09-07T04:45:04;17.40;;;7.30;;
21458;SDS011;10891;49.350;19.386;2023-09-07T04:47:31;16.00;;;7.05;;
21458;SDS011;10891;49.350;19.386;2023-09-07T04:50:00;13.98;;;6.60;;
21458;SDS011;10891;49.350;19.386;2023-09-07T04:52:29;19.58;;;7.70;;
21458;SDS011;10891;49.350;19.386;2023-09-07T04:54:56;16.73;;;7.10;;
21458;SDS011;10891;49.350;19.386;2023-09-07T04:57:23;12.35;;;7.05;;
21458;SDS011;10891;49.350;19.386;2023-09-07T04:59:50;16.55;;;6.00;;
21458;SDS011;10891;49.350;19.386;2023-09-07T05:02:17;18.83;;;7.15;;
21458;SDS011;10891;49.350;19.386;2023-09-07T05:04:45;14.95;;;6.40;;
21458;SDS011;10891;49.350;19.386;2023-09-07T05:07:13;21.63;;;6.70;;
21458;SDS011;10891;49.350;19.386;2023-09-07T05:09:40;21.20;;;6.63;;
21458;SDS011;10891;49.350;19.386;2023-09-07T05:12:08;15.05;;;6.57;;
21458;SDS011;10891;49.350;19.386;2023-09-07T05:14:35;26.33;;;7.72;;
21458;SDS011;10891;49.350;19.386;2023-09-07T05:17:03;27.35;;;6.55;;
21458;SDS011;10891;49.350;19.386;2023-09-07T05:19:30;23.73;;;6.97;;
21458;SDS011;10891;49.350;19.386;2023-09-07T05:21:57;19.73;;;6.93;;
21458;SDS011;10891;49.350;19.386;2023-09-07T05:24:25;20.10;;;6.47;;
21458;SDS011;10891;49.350;19.386;2023-09-07T05:26:53;19.13;;;7.28;;
21458;SDS011;10891;49.350;19.386;2023-09-07T05:29:20;13.77;;;8.50;;
21458;SDS011;10891;49.350;19.386;2023-09-07T05:31:47;15.50;;;9.85;;
21458;SDS011;10891;49.350;19.386;2023-09-07T05:34:15;36.70;;;13.55;;
21458;SDS011;10891;49.350;19.386;2023-09-07T05:36:42;24.70;;;15.35;;
21458;SDS011;10891;49.350;19.386;2023-09-07T05:39:09;26.35;;;11.93;;
21458;SDS011;10891;49.350;19.386;2023-09-07T05:41:38;23.45;;;8.90;;
21458;SDS011;10891;49.350;19.386;2023-09-07T05:44:05;12.00;;;6.68;;
21458;SDS011;10891;49.350;19.386;2023-09-07T05:46:32;20.27;;;7.20;;
21458;SDS011;10891;49.350;19.386;2023-09-07T05:48:59;15.95;;;7.30;;
21458;SDS011;10891;49.350;19.386;2023-09-07T05:51:26;12.77;;;7.18;;
21458;SDS011;10891;49.350;19.386;2023-09-07T05:53:54;20.65;;;7.35;;
21458;SDS011;10891;49.350;19.386;2023-09-07T05:56:21;16.88;;;7.32;;
21458;SDS011;10891;49.350;19.386;2023-09-07T05:58:50;11.60;;;7.70;;
21458;SDS011;10891;49.350;19.386;2023-09-07T06:01:17;15.48;;;7.50;;
21458;SDS011;10891;49.350;19.386;2023-09-07T06:03:44;17.42;;;7.35;;
21458;SDS011;10891;49.350;19.386;2023-09-07T06:06:11;16.30;;;8.93;;
21458;SDS011;10891;49.350;19.386;2023-09-07T06:08:39;18.02;;;7.97;;
21458;SDS011;10891;49.350;19.386;2023-09-07T06:11:06;24.85;;;8.38;;
21458;SDS011;10891;49.350;19.386;2023-09-07T06:13:33;19.15;;;7.25;;
21458;SDS011;10891;49.350;19.386;2023-09-07T06:16:02;13.48;;;7.18;;
21458;SDS011;10891;49.350;19.386;2023-09-07T06:18:29;20.15;;;8.15;;
21458;SDS011;10891;49.350;19.386;2023-09-07T06:20:56;19.20;;;9.98;;
21458;SDS011;10891;49.350;19.386;2023-09-07T06:23:24;19.10;;;11.48;;
21458;SDS011;10891;49.350;19.386;2023-09-07T06:25:51;17.50;;;10.15;;
21458;SDS011;10891;49.350;19.386;2023-09-07T06:28:18;63.45;;;24.48;;
21458;SDS011;10891;49.350;19.386;2023-09-07T06:30:45;78.78;;;28.60;;
21458;SDS011;10891;49.350;19.386;2023-09-07T06:33:16;46.85;;;19.92;;
21458;SDS011;10891;49.350;19.386;2023-09-07T06:35:43;41.50;;;18.83;;
21458;SDS011;10891;49.350;19.386;2023-09-07T06:38:11;28.08;;;14.70;;
21458;SDS011;10891;49.350;19.386;2023-09-07T06:40:38;33.65;;;14.45;;
21458;SDS011;10891;49.350;19.386;2023-09-07T06:43:05;33.22;;;15.43;;
21458;SDS011;10891;49.350;19.386;2023-09-07T06:45:34;21.05;;;11.38;;
21458;SDS011;10891;49.350;19.386;2023-09-07T06:48:01;20.13;;;10.27;;
21458;SDS011;10891;49.350;19.386;2023-09-07T06:50:30;16.52;;;9.57;;
21458;SDS011;10891;49.350;19.386;2023-09-07T06:52:57;13.60;;;8.35;;
21458;SDS011;10891;49.350;19.386;2023-09-07T06:55:24;13.43;;;8.57;;
21458;SDS011;10891;49.350;19.386;2023-09-07T06:57:53;16.40;;;9.00;;
21458;SDS011;10891;49.350;19.386;2023-09-07T07:00:20;12.25;;;8.05;;
21458;SDS011;10891;49.350;19.386;2023-09-07T07:02:48;11.02;;;7.10;;
21458;SDS011;10891;49.350;19.386;2023-09-07T07:05:15;10.48;;;6.90;;
21458;SDS011;10891;49.350;19.386;2023-09-07T07:07:44;9.52;;;6.88;;
21458;SDS011;10891;49.350;19.386;2023-09-07T07:10:11;12.10;;;7.20;;
21458;SDS011;10891;49.350;19.386;2023-09-07T07:12:38;12.60;;;7.53;;
21458;SDS011;10891;49.350;19.386;2023-09-07T07:15:05;10.70;;;7.10;;
21458;SDS011;10891;49.350;19.386;2023-09-07T07:17:33;16.65;;;8.55;;
21458;SDS011;10891;49.350;19.386;2023-09-07T07:20:00;13.85;;;6.00;;
21458;SDS011;10891;49.350;19.386;2023-09-07T07:22:27;10.90;;;5.55;;
21458;SDS011;10891;49.350;19.386;2023-09-07T07:24:56;10.05;;;5.57;;
21458;SDS011;10891;49.350;19.386;2023-09-07T07:27:24;12.70;;;6.90;;
21458;SDS011;10891;49.350;19.386;2023-09-07T07:29:51;10.00;;;6.63;;
21458;SDS011;10891;49.350;19.386;2023-09-07T07:32:19;10.38;;;7.30;;
21458;SDS011;10891;49.350;19.386;2023-09-07T07:34:46;9.98;;;7.13;;
21458;SDS011;10891;49.350;19.386;2023-09-07T07:37:14;10.10;;;6.10;;
21458;SDS011;10891;49.350;19.386;2023-09-07T07:39:42;12.23;;;6.72;;
21458;SDS011;10891;49.350;19.386;2023-09-07T07:42:10;11.30;;;7.05;;
21458;SDS011;10891;49.350;19.386;2023-09-07T07:44:38;10.55;;;7.40;;
21458;SDS011;10891;49.350;19.386;2023-09-07T07:47:05;11.20;;;6.95;;
21458;SDS011;10891;49.350;19.386;2023-09-07T07:49:32;12.15;;;6.72;;
21458;SDS011;10891;49.350;19.386;2023-09-07T07:51:59;11.77;;;7.30;;
21458;SDS011;10891;49.350;19.386;2023-09-07T07:54:26;14.00;;;8.35;;
21458;SDS011;10891;49.350;19.386;2023-09-07T07:56:54;9.50;;;6.63;;
21458;SDS011;10891;49.350;19.386;2023-09-07T07:59:22;8.07;;;6.13;;
21458;SDS011;10891;49.350;19.386;2023-09-07T08:01:49;11.10;;;6.95;;
21458;SDS011;10891;49.350;19.386;2023-09-07T08:04:17;10.13;;;5.80;;
21458;SDS011;10891;49.350;19.386;2023-09-07T08:06:44;9.88;;;6.85;;
21458;SDS011;10891;49.350;19.386;2023-09-07T08:09:11;12.82;;;7.38;;
21458;SDS011;10891;49.350;19.386;2023-09-07T08:11:39;13.77;;;7.60;;
21458;SDS011;10891;49.350;19.386;2023-09-07T08:14:07;14.80;;;7.70;;
21458;SDS011;10891;49.350;19.386;2023-09-07T08:16:35;9.88;;;6.35;;
21458;SDS011;10891;49.350;19.386;2023-09-07T08:19:03;11.52;;;6.70;;
21458;SDS011;10891;49.350;19.386;2023-09-07T08:21:30;12.07;;;6.93;;
21458;SDS011;10891;49.350;19.386;2023-09-07T08:23:58;10.45;;;6.38;;
21458;SDS011;10891;49.350;19.386;2023-09-07T08:29:02;8.35;;;5.40;;
21458;SDS011;10891;49.350;19.386;2023-09-07T08:31:30;10.35;;;5.47;;
21458;SDS011;10891;49.350;19.386;2023-09-07T08:34:00;10.90;;;5.95;;
21458;SDS011;10891;49.350;19.386;2023-09-07T08:36:28;9.60;;;6.30;;
21458;SDS011;10891;49.350;19.386;2023-09-07T08:38:58;11.80;;;6.47;;
21458;SDS011;10891;49.350;19.386;2023-09-07T08:41:31;11.60;;;5.97;;
21458;SDS011;10891;49.350;19.386;2023-09-07T08:43:58;11.88;;;6.28;;
21458;SDS011;10891;49.350;19.386;2023-09-07T08:46:26;9.02;;;5.85;;
21458;SDS011;10891;49.350;19.386;2023-09-07T08:48:55;10.38;;;5.70;;
21458;SDS011;10891;49.350;19.386;2023-09-07T08:51:26;8.18;;;5.20;;
21458;SDS011;10891;49.350;19.386;2023-09-07T08:53:53;6.88;;;4.97;;
21458;SDS011;10891;49.350;19.386;2023-09-07T08:56:21;10.60;;;6.00;;
21458;SDS011;10891;49.350;19.386;2023-09-07T08:58:49;12.23;;;6.22;;
21458;SDS011;10891;49.350;19.386;2023-09-07T09:01:16;10.77;;;6.30;;
21458;SDS011;10891;49.350;19.386;2023-09-07T09:03:46;12.05;;;6.28;;
21458;SDS011;10891;49.350;19.386;2023-09-07T09:06:14;12.80;;;6.82;;
21458;SDS011;10891;49.350;19.386;2023-09-07T09:08:45;14.15;;;6.50;;
21458;SDS011;10891;49.350;19.386;2023-09-07T09:11:14;11.10;;;6.22;;
21458;SDS011;10891;49.350;19.386;2023-09-07T09:13:41;16.92;;;7.75;;
21458;SDS011;10891;49.350;19.386;2023-09-07T09:16:09;13.25;;;6.45;;
21458;SDS011;10891;49.350;19.386;2023-09-07T09:18:37;12.10;;;6.30;;
21458;SDS011;10891;49.350;19.386;2023-09-07T09:21:05;12.57;;;6.40;;
21458;SDS011;10891;49.350;19.386;2023-09-07T09:23:32;14.27;;;6.10;;
21458;SDS011;10891;49.350;19.386;2023-09-07T09:26:01;16.13;;;6.43;;
21458;SDS011;10891;49.350;19.386;2023-09-07T09:28:30;12.18;;;6.22;;
21458;SDS011;10891;49.350;19.386;2023-09-07T09:30:58;10.07;;;5.38;;
21458;SDS011;10891;49.350;19.386;2023-09-07T09:33:25;11.35;;;5.57;;
21458;SDS011;10891;49.350;19.386;2023-09-07T09:35:54;13.13;;;6.22;;
21458;SDS011;10891;49.350;19.386;2023-09-07T09:38:21;11.18;;;5.78;;
21458;SDS011;10891;49.350;19.386;2023-09-07T09:40:48;15.30;;;6.30;;
21458;SDS011;10891;49.350;19.386;2023-09-07T09:43:17;10.55;;;5.28;;
21458;SDS011;10891;49.350;19.386;2023-09-07T09:45:46;11.90;;;5.82;;
21458;SDS011;10891;49.350;19.386;2023-09-07T09:48:16;14.88;;;6.03;;
21458;SDS011;10891;49.350;19.386;2023-09-07T09:50:43;12.30;;;5.63;;
21458;SDS011;10891;49.350;19.386;2023-09-07T09:53:11;9.75;;;5.10;;
21458;SDS011;10891;49.350;19.386;2023-09-07T09:55:41;9.65;;;5.25;;
21458;SDS011;10891;49.350;19.386;2023-09-07T09:58:08;7.03;;;5.22;;
21458;SDS011;10891;49.350;19.386;2023-09-07T10:00:38;8.02;;;5.43;;
21458;SDS011;10891;49.350;19.386;2023-09-07T10:03:07;9.13;;;5.47;;
21458;SDS011;10891;49.350;19.386;2023-09-07T10:05:36;9.98;;;5.30;;
21458;SDS011;10891;49.350;19.386;2023-09-07T10:08:07;7.25;;;4.93;;
21458;SDS011;10891;49.350;19.386;2023-09-07T10:10:35;15.60;;;5.07;;
21458;SDS011;10891;49.350;19.386;2023-09-07T10:13:02;10.43;;;4.78;;
21458;SDS011;10891;49.350;19.386;2023-09-07T10:15:30;9.27;;;4.80;;
21458;SDS011;10891;49.350;19.386;2023-09-07T10:18:11;8.93;;;5.07;;
21458;SDS011;10891;49.350;19.386;2023-09-07T10:20:51;8.32;;;4.63;;
21458;SDS011;10891;49.350;19.386;2023-09-07T10:23:19;8.30;;;4.60;;
21458;SDS011;10891;49.350;19.386;2023-09-07T10:25:50;7.65;;;4.63;;
21458;SDS011;10891;49.350;19.386;2023-09-07T10:28:18;11.43;;;5.32;;
21458;SDS011;10891;49.350;19.386;2023-09-07T10:30:45;9.23;;;4.68;;
21458;SDS011;10891;49.350;19.386;2023-09-07T10:33:20;6.57;;;4.50;;
21458;SDS011;10891;49.350;19.386;2023-09-07T10:35:47;8.43;;;4.63;;
21458;SDS011;10891;49.350;19.386;2023-09-07T10:38:15;9.25;;;5.13;;
21458;SDS011;10891;49.350;19.386;2023-09-07T10:40:42;7.20;;;4.85;;
21458;SDS011;10891;49.350;19.386;2023-09-07T10:43:11;10.70;;;4.60;;
21458;SDS011;10891;49.350;19.386;2023-09-07T10:45:38;11.68;;;4.53;;
21458;SDS011;10891;49.350;19.386;2023-09-07T10:48:06;10.10;;;4.72;;
21458;SDS011;10891;49.350;19.386;2023-09-07T10:50:43;9.30;;;4.57;;
21458;SDS011;10891;49.350;19.386;2023-09-07T10:53:11;9.43;;;4.45;;
21458;SDS011;10891;49.350;19.386;2023-09-07T10:55:39;8.80;;;4.50;;
21458;SDS011;10891;49.350;19.386;2023-09-07T10:58:08;8.77;;;4.38;;
21458;SDS011;10891;49.350;19.386;2023-09-07T11:00:36;8.48;;;4.43;;
21458;SDS011;10891;49.350;19.386;2023-09-07T11:03:07;5.85;;;4.13;;
21458;SDS011;10891;49.350;19.386;2023-09-07T11:05:36;5.45;;;4.07;;
21458;SDS011;10891;49.350;19.386;2023-09-07T11:08:06;7.80;;;4.05;;
21458;SDS011;10891;49.350;19.386;2023-09-07T11:10:34;9.75;;;4.82;;
21458;SDS011;10891;49.350;19.386;2023-09-07T11:13:02;7.63;;;3.97;;
21458;SDS011;10891;49.350;19.386;2023-09-07T11:15:30;5.53;;;3.63;;
21458;SDS011;10891;49.350;19.386;2023-09-07T11:17:58;8.05;;;3.60;;
21458;SDS011;10891;49.350;19.386;2023-09-07T11:20:26;7.55;;;4.40;;
21458;SDS011;10891;49.350;19.386;2023-09-07T11:22:53;6.22;;;3.97;;
21458;SDS011;10891;49.350;19.386;2023-09-07T11:25:22;6.03;;;3.67;;
21458;SDS011;10891;49.350;19.386;2023-09-07T11:27:51;8.18;;;4.40;;
21458;SDS011;10891;49.350;19.386;2023-09-07T11:30:20;6.00;;;3.97;;
21458;SDS011;10891;49.350;19.386;2023-09-07T11:32:49;6.53;;;4.07;;
21458;SDS011;10891;49.350;19.386;2023-09-07T11:35:16;9.63;;;4.72;;
21458;SDS011;10891;49.350;19.386;2023-09-07T11:37:43;10.68;;;4.72;;
21458;SDS011;10891;49.350;19.386;2023-09-07T11:40:18;8.07;;;4.35;;
21458;SDS011;10891;49.350;19.386;2023-09-07T11:42:47;6.95;;;3.97;;
21458;SDS011;10891;49.350;19.386;2023-09-07T11:45:14;7.82;;;4.40;;
21458;SDS011;10891;49.350;19.386;2023-09-07T11:47:43;5.70;;;3.78;;
21458;SDS011;10891;49.350;19.386;2023-09-07T11:50:10;10.82;;;5.00;;
21458;SDS011;10891;49.350;19.386;2023-09-07T11:52:39;7.45;;;4.00;;
21458;SDS011;10891;49.350;19.386;2023-09-07T11:55:07;9.32;;;4.03;;
21458;SDS011;10891;49.350;19.386;2023-09-07T11:57:35;5.30;;;3.78;;
21458;SDS011;10891;49.350;19.386;2023-09-07T12:00:05;14.05;;;3.85;;
21458;SDS011;10891;49.350;19.386;2023-09-07T12:02:36;8.60;;;3.88;;
21458;SDS011;10891;49.350;19.386;2023-09-07T12:05:04;7.93;;;3.75;;
21458;SDS011;10891;49.350;19.386;2023-09-07T12:07:33;11.93;;;4.00;;
21458;SDS011;10891;49.350;19.386;2023-09-07T12:10:00;6.78;;;3.92;;
21458;SDS011;10891;49.350;19.386;2023-09-07T12:12:27;5.65;;;3.72;;
21458;SDS011;10891;49.350;19.386;2023-09-07T12:14:55;6.68;;;3.63;;
21458;SDS011;10891;49.350;19.386;2023-09-07T12:17:24;10.57;;;4.28;;
21458;SDS011;10891;49.350;19.386;2023-09-07T12:19:51;6.03;;;3.70;;
21458;SDS011;10891;49.350;19.386;2023-09-07T12:22:18;8.05;;;4.05;;
21458;SDS011;10891;49.350;19.386;2023-09-07T12:24:45;10.95;;;4.32;;
21458;SDS011;10891;49.350;19.386;2023-09-07T12:27:12;5.50;;;3.38;;
21458;SDS011;10891;49.350;19.386;2023-09-07T12:29:40;6.25;;;3.92;;
21458;SDS011;10891;49.350;19.386;2023-09-07T12:32:07;9.98;;;3.53;;
21458;SDS011;10891;49.350;19.386;2023-09-07T12:34:36;7.25;;;3.80;;
21458;SDS011;10891;49.350;19.386;2023-09-07T12:37:04;6.18;;;3.42;;
21458;SDS011;10891;49.350;19.386;2023-09-07T12:39:31;7.20;;;3.17;;
21458;SDS011;10891;49.350;19.386;2023-09-07T12:41:58;5.15;;;3.53;;
21458;SDS011;10891;49.350;19.386;2023-09-07T12:44:26;6.65;;;3.28;;
21458;SDS011;10891;49.350;19.386;2023-09-07T12:46:53;10.43;;;3.33;;
21458;SDS011;10891;49.350;19.386;2023-09-07T12:49:21;9.20;;;3.45;;
21458;SDS011;10891;49.350;19.386;2023-09-07T12:51:49;4.63;;;3.08;;
21458;SDS011;10891;49.350;19.386;2023-09-07T12:54:16;5.85;;;3.22;;
21458;SDS011;10891;49.350;19.386;2023-09-07T12:56:43;6.93;;;3.00;;
21458;SDS011;10891;49.350;19.386;2023-09-07T12:59:11;7.30;;;2.85;;
21458;SDS011;10891;49.350;19.386;2023-09-07T13:01:38;5.65;;;3.08;;
21458;SDS011;10891;49.350;19.386;2023-09-07T13:04:05;5.60;;;3.00;;
21458;SDS011;10891;49.350;19.386;2023-09-07T13:06:32;6.07;;;2.80;;
21458;SDS011;10891;49.350;19.386;2023-09-07T13:09:01;8.20;;;3.00;;
21458;SDS011;10891;49.350;19.386;2023-09-07T13:11:29;3.65;;;2.72;;
21458;SDS011;10891;49.350;19.386;2023-09-07T13:13:56;7.57;;;2.78;;
21458;SDS011;10891;49.350;19.386;2023-09-07T13:16:24;4.85;;;2.67;;
21458;SDS011;10891;49.350;19.386;2023-09-07T13:18:51;7.05;;;2.80;;
21458;SDS011;10891;49.350;19.386;2023-09-07T13:21:18;5.57;;;2.53;;
21458;SDS011;10891;49.350;19.386;2023-09-07T13:23:45;10.02;;;3.13;;
21458;SDS011;10891;49.350;19.386;2023-09-07T13:26:14;6.10;;;2.75;;
21458;SDS011;10891;49.350;19.386;2023-09-07T13:28:41;6.13;;;2.95;;
21458;SDS011;10891;49.350;19.386;2023-09-07T13:31:08;6.75;;;2.97;;
21458;SDS011;10891;49.350;19.386;2023-09-07T13:33:35;5.47;;;3.13;;
21458;SDS011;10891;49.350;19.386;2023-09-07T13:36:03;4.90;;;2.63;;
21458;SDS011;10891;49.350;19.386;2023-09-07T13:38:30;5.90;;;2.97;;
21458;SDS011;10891;49.350;19.386;2023-09-07T13:40:57;6.13;;;2.97;;
21458;SDS011;10891;49.350;19.386;2023-09-07T13:43:26;6.70;;;3.17;;
21458;SDS011;10891;49.350;19.386;2023-09-07T13:45:53;6.43;;;3.60;;
21458;SDS011;10891;49.350;19.386;2023-09-07T13:48:20;8.50;;;3.10;;
21458;SDS011;10891;49.350;19.386;2023-09-07T13:50:47;6.45;;;3.80;;
21458;SDS011;10891;49.350;19.386;2023-09-07T13:53:14;4.68;;;3.30;;
21458;SDS011;10891;49.350;19.386;2023-09-07T13:55:42;11.88;;;3.35;;
21458;SDS011;10891;49.350;19.386;2023-09-07T13:58:11;9.80;;;3.83;;
21458;SDS011;10891;49.350;19.386;2023-09-07T14:00:39;10.45;;;3.85;;
21458;SDS011;10891;49.350;19.386;2023-09-07T14:03:06;6.13;;;3.80;;
21458;SDS011;10891;49.350;19.386;2023-09-07T14:05:34;10.15;;;4.22;;
21458;SDS011;10891;49.350;19.386;2023-09-07T14:08:01;7.63;;;3.95;;
21458;SDS011;10891;49.350;19.386;2023-09-07T14:10:28;7.10;;;3.22;;
21458;SDS011;10891;49.350;19.386;2023-09-07T14:12:55;9.18;;;4.10;;
21458;SDS011;10891;49.350;19.386;2023-09-07T14:15:22;6.63;;;3.47;;
21458;SDS011;10891;49.350;19.386;2023-09-07T14:17:51;7.72;;;3.53;;
21458;SDS011;10891;49.350;19.386;2023-09-07T14:20:18;11.98;;;4.85;;
21458;SDS011;10891;49.350;19.386;2023-09-07T14:22:46;8.35;;;3.70;;
21458;SDS011;10891;49.350;19.386;2023-09-07T14:25:13;9.98;;;5.25;;
21458;SDS011;10891;49.350;19.386;2023-09-07T14:27:41;11.07;;;4.90;;
21458;SDS011;10891;49.350;19.386;2023-09-07T14:30:09;8.95;;;3.25;;
21458;SDS011;10891;49.350;19.386;2023-09-07T14:32:36;7.78;;;3.88;;